Time;durP1;ratioP1;P1;durP2;ratioP2;P2;SDS_P1;SDS_P2;PMS_P1;PMS_P2;Temp;Humidity;BMP_temperature;BMP_pressure;BME280_temperature;BME280_humidity;BME280_pressure;Samples;Min_cycle;Max_cycle;Signal;HPM_P1;HPM_P2
2023/08/19 00:01:05;;;;;;;20.55;17.23;;;21.60;99.90;;;;;;4948471;28;20028;-83
2023/08/19 00:03:32;;;;;;;17.63;15.90;;;21.60;99.90;;;;;;4934545;29;20051;-83
2023/08/19 00:06:08;;;;;;;18.37;16.30;;;21.60;99.90;;;;;;4942805;29;20071;-81
2023/08/19 00:08:35;;;;;;;18.90;16.90;;;21.60;99.90;;;;;;4965513;29;20091;-83
2023/08/19 00:11:02;;;;;;;18.85;16.90;;;21.50;99.90;;;;;;4946562;29;20032;-82
2023/08/19 00:13:28;;;;;;;17.58;15.88;;;21.50;99.90;;;;;;4942240;29;20096;-83
2023/08/19 00:15:54;;;;;;;18.27;16.40;;;21.50;99.90;;;;;;4933678;29;20047;-84
2023/08/19 00:18:20;;;;;;;18.23;16.20;;;21.50;99.90;;;;;;4939659;29;20020;-84
2023/08/19 00:20:46;;;;;;;18.08;16.25;;;21.50;99.90;;;;;;4943428;29;20066;-83
2023/08/19 00:23:15;;;;;;;18.67;16.67;;;21.50;99.90;;;;;;4939281;28;20020;-84
2023/08/19 00:25:40;;;;;;;21.65;16.75;;;21.50;99.90;;;;;;4941660;29;20032;-84
2023/08/19 00:28:06;;;;;;;17.02;15.23;;;21.50;99.90;;;;;;4937750;29;20016;-84
2023/08/19 00:30:32;;;;;;;19.08;16.13;;;21.50;99.90;;;;;;4931710;29;20040;-84
2023/08/19 00:32:59;;;;;;;19.00;17.10;;;21.50;99.90;;;;;;4945943;28;20433;-84
2023/08/19 00:35:24;;;;;;;17.23;15.50;;;21.60;99.90;;;;;;4926796;28;20020;-85
2023/08/19 00:37:50;;;;;;;18.17;15.68;;;21.50;99.90;;;;;;4937742;29;20484;-83
2023/08/19 00:40:16;;;;;;;18.20;16.35;;;21.50;99.90;;;;;;4946185;28;20036;-83
2023/08/19 00:42:42;;;;;;;16.63;15.02;;;21.50;99.90;;;;;;4934442;29;20026;-82
2023/08/19 00:45:09;;;;;;;17.13;15.45;;;21.40;99.90;;;;;;4946682;28;20039;-84
2023/08/19 00:47:36;;;;;;;17.77;15.93;;;21.40;99.90;;;;;;4928808;29;20095;-84
2023/08/19 00:50:08;;;;;;;17.88;16.27;;;21.40;99.90;;;;;;4934874;29;20060;-83
2023/08/19 00:52:35;;;;;;;17.85;15.98;;;21.40;99.90;;;;;;4941579;28;20035;-84
2023/08/19 00:55:02;;;;;;;18.30;15.93;;;21.30;99.90;;;;;;4935824;29;20032;-82
2023/08/19 00:57:28;;;;;;;17.75;15.95;;;21.30;99.90;;;;;;4946566;29;20028;-83
2023/08/19 00:59:54;;;;;;;17.65;15.85;;;21.30;99.90;;;;;;4956334;29;20041;-83
2023/08/19 01:02:19;;;;;;;18.27;15.77;;;21.20;99.90;;;;;;4932132;29;20379;-82
2023/08/19 01:04:45;;;;;;;22.77;15.85;;;21.20;99.90;;;;;;4938605;29;20604;-83
2023/08/19 01:07:31;;;;;;;19.95;16.05;;;21.20;99.90;;;;;;4942853;29;20047;-83
2023/08/19 01:10:35;;;;;;;17.23;15.52;;;21.20;99.90;;;;;;4943845;29;20027;-83
2023/08/19 01:13:15;;;;;;;17.90;16.00;;;21.20;99.90;;;;;;4938933;29;20023;-83
2023/08/19 01:15:46;;;;;;;18.38;16.50;;;21.10;99.90;;;;;;4950911;29;20093;-84
2023/08/19 01:18:14;;;;;;;18.20;15.32;;;21.10;99.90;;;;;;4936631;29;20102;-83
2023/08/19 01:20:41;;;;;;;17.83;15.60;;;21.10;99.90;;;;;;4937656;29;20027;-84
2023/08/19 01:23:32;;;;;;;20.15;17.27;;;21.10;99.90;;;;;;4927848;29;20492;-83
2023/08/19 01:25:58;;;;;;;17.58;15.85;;;21.10;99.90;;;;;;4936519;29;20233;-83
2023/08/19 01:28:24;;;;;;;19.27;17.20;;;21.10;99.90;;;;;;4939753;29;20110;-83
2023/08/19 01:30:50;;;;;;;18.73;16.23;;;21.10;99.90;;;;;;4953451;29;20059;-83
2023/08/19 01:33:16;;;;;;;18.13;16.45;;;21.10;99.90;;;;;;4959157;29;20043;-82
2023/08/19 01:36:19;;;;;;;18.10;16.13;;;21.10;99.90;;;;;;4937924;29;20747;-82
2023/08/19 01:38:59;;;;;;;20.70;16.23;;;21.10;99.90;;;;;;4923272;29;20032;-83
2023/08/19 01:41:28;;;;;;;18.50;16.75;;;21.10;99.90;;;;;;4937367;29;20078;-83
2023/08/19 01:43:59;;;;;;;18.55;16.58;;;21.10;99.90;;;;;;4931569;29;20000;-83
2023/08/19 01:46:26;;;;;;;20.55;15.98;;;21.10;99.90;;;;;;4949115;29;20040;-83
2023/08/19 01:48:52;;;;;;;19.15;16.65;;;21.10;99.90;;;;;;4926588;29;20027;-82
2023/08/19 01:51:18;;;;;;;19.25;17.08;;;21.20;99.90;;;;;;4934665;29;20095;-83
2023/08/19 01:53:44;;;;;;;24.05;18.77;;;21.30;99.90;;;;;;4936586;29;20019;-83
2023/08/19 01:56:11;;;;;;;20.08;17.40;;;21.30;99.90;;;;;;4943365;29;20036;-82
2023/08/19 01:58:37;;;;;;;;;;;21.30;99.90;;;;;;4948159;29;20023;-82
2023/08/19 02:01:03;;;;;;;18.65;16.67;;;21.30;99.90;;;;;;4940738;29;20015;-84
2023/08/19 02:03:28;;;;;;;19.48;16.67;;;21.30;99.90;;;;;;4936137;29;20020;-83
2023/08/19 02:05:54;;;;;;;17.55;15.82;;;21.30;99.90;;;;;;4934162;29;20063;-83
2023/08/19 02:08:20;;;;;;;18.55;16.63;;;21.20;99.90;;;;;;4931580;29;20102;-83
2023/08/19 02:10:46;;;;;;;18.90;16.88;;;21.20;99.90;;;;;;4936040;29;20114;-84
2023/08/19 02:13:12;;;;;;;19.60;17.30;;;21.10;99.90;;;;;;4924368;29;20031;-84
2023/08/19 02:15:38;;;;;;;19.05;17.02;;;21.10;99.90;;;;;;4936667;29;20127;-85
2023/08/19 02:18:04;;;;;;;18.00;16.15;;;21.00;99.90;;;;;;4935701;29;20027;-83
2023/08/19 02:20:30;;;;;;;22.02;16.45;;;21.00;99.90;;;;;;4941333;29;20540;-83
2023/08/19 02:22:56;;;;;;;20.83;16.85;;;21.00;99.90;;;;;;4935041;29;20110;-82
2023/08/19 02:25:21;;;;;;;23.70;17.98;;;21.00;99.90;;;;;;4935353;29;20035;-84
2023/08/19 02:27:49;;;;;;;18.58;16.42;;;20.90;99.90;;;;;;4935576;29;20439;-85
2023/08/19 02:30:14;;;;;;;;;;;20.90;99.90;;;;;;4936322;29;20425;-84
2023/08/19 02:32:40;;;;;;;18.83;15.95;;;20.90;99.90;;;;;;4937011;29;19907;-84
2023/08/19 02:35:07;;;;;;;18.05;16.27;;;20.90;99.90;;;;;;4937440;29;20028;-84
2023/08/19 02:37:32;;;;;;;18.15;16.38;;;20.90;99.90;;;;;;4935733;29;20027;-84
2023/08/19 02:39:58;;;;;;;19.75;16.52;;;20.90;99.90;;;;;;4935850;29;20390;-84
2023/08/19 02:42:24;;;;;;;18.88;16.92;;;20.90;99.90;;;;;;4927645;29;20028;-84
2023/08/19 02:44:50;;;;;;;18.20;16.30;;;20.90;99.90;;;;;;4935810;29;20114;-85
2023/08/19 02:47:16;;;;;;;19.90;17.90;;;21.00;99.90;;;;;;4923546;29;20106;-85
2023/08/19 02:49:43;;;;;;;17.20;15.52;;;21.00;99.90;;;;;;4934147;29;20144;-85
2023/08/19 02:52:09;;;;;;;21.33;17.07;;;21.00;99.90;;;;;;4935768;29;20161;-85
2023/08/19 02:54:35;;;;;;;17.95;15.93;;;21.00;99.90;;;;;;4920936;29;20271;-85
2023/08/19 02:57:01;;;;;;;20.80;17.48;;;21.00;99.90;;;;;;4939118;29;20035;-85
2023/08/19 02:59:27;;;;;;;23.10;17.02;;;21.00;99.90;;;;;;4930441;29;20490;-83
2023/08/19 03:01:52;;;;;;;19.23;17.23;;;21.00;99.90;;;;;;4935542;29;20031;-83
2023/08/19 03:04:18;;;;;;;24.67;16.70;;;21.00;99.90;;;;;;4936041;29;20032;-83
2023/08/19 03:06:45;;;;;;;20.10;16.23;;;21.10;99.90;;;;;;4953741;29;20034;-85
2023/08/19 03:09:11;;;;;;;17.90;16.10;;;21.10;99.90;;;;;;4954367;29;20031;-85
2023/08/19 03:11:36;;;;;;;19.00;16.58;;;21.10;99.90;;;;;;4925019;29;20030;-85
2023/08/19 03:14:02;;;;;;;19.60;15.90;;;21.20;99.90;;;;;;4935137;29;20023;-84
2023/08/19 03:16:28;;;;;;;19.25;16.73;;;21.20;99.90;;;;;;4947796;28;20391;-84
2023/08/19 03:18:54;;;;;;;18.15;16.20;;;21.30;99.90;;;;;;4949738;28;20011;-84
2023/08/19 03:21:20;;;;;;;18.80;16.30;;;21.30;99.90;;;;;;4953819;29;20034;-82
2023/08/19 03:23:46;;;;;;;18.10;16.17;;;21.30;99.90;;;;;;4943464;29;20023;-85
2023/08/19 03:26:11;;;;;;;16.38;14.70;;;21.40;99.90;;;;;;4940152;29;20485;-86
2023/08/19 03:28:37;;;;;;;19.23;15.45;;;21.40;99.70;;;;;;4939611;29;20091;-85
2023/08/19 03:31:12;;;;;;;17.35;15.07;;;21.50;99.50;;;;;;4939581;29;20032;-85
2023/08/19 03:33:42;;;;;;;16.88;15.27;;;21.50;99.40;;;;;;4937200;29;20122;-85
2023/08/19 03:36:07;;;;;;;16.65;14.85;;;21.60;99.30;;;;;;4940003;29;20038;-86
2023/08/19 03:38:33;;;;;;;16.75;14.63;;;21.60;99.30;;;;;;4939366;29;20028;-85
2023/08/19 03:40:59;;;;;;;16.35;14.65;;;21.70;99.30;;;;;;4945749;29;20041;-82
2023/08/19 03:43:25;;;;;;;15.88;14.15;;;21.70;99.00;;;;;;4934522;29;20020;-83
2023/08/19 03:45:51;;;;;;;15.85;14.20;;;21.80;98.90;;;;;;4938587;29;20047;-82
2023/08/19 03:48:16;;;;;;;15.50;13.93;;;21.80;98.70;;;;;;4941271;29;20080;-83
2023/08/19 03:50:42;;;;;;;15.95;14.40;;;21.80;98.50;;;;;;4940781;29;20043;-83
2023/08/19 03:53:08;;;;;;;15.85;14.30;;;21.80;98.70;;;;;;4940495;29;20094;-83
2023/08/19 03:55:34;;;;;;;15.80;13.25;;;21.90;98.40;;;;;;4941864;29;20449;-83
2023/08/19 03:57:59;;;;;;;16.98;14.82;;;21.80;98.40;;;;;;4954185;29;20031;-84
2023/08/19 04:00:25;;;;;;;24.60;19.80;;;21.80;98.40;;;;;;4938826;29;20030;-82
2023/08/19 04:02:51;;;;;;;18.17;15.98;;;21.80;98.70;;;;;;4936050;29;20111;-84
2023/08/19 04:05:17;;;;;;;22.17;18.35;;;21.80;98.60;;;;;;4939471;29;20545;-84
2023/08/19 04:07:42;;;;;;;18.10;15.43;;;21.90;98.50;;;;;;4938248;29;20485;-85
2023/08/19 04:10:09;;;;;;;17.27;15.60;;;22.00;98.30;;;;;;4955479;29;20051;-83
2023/08/19 04:12:35;;;;;;;18.53;15.87;;;22.00;98.00;;;;;;4946369;29;20028;-84
2023/08/19 04:15:01;;;;;;;20.55;15.00;;;22.10;97.80;;;;;;4940434;29;20047;-84
2023/08/19 04:17:27;;;;;;;15.90;14.30;;;22.10;97.80;;;;;;4949025;29;20098;-85
2023/08/19 04:19:52;;;;;;;21.10;18.58;;;22.10;97.60;;;;;;4939597;29;20035;-84
2023/08/19 04:22:18;;;;;;;19.30;16.40;;;22.10;97.70;;;;;;4938912;29;20015;-84
2023/08/19 04:24:51;;;;;;;19.48;15.43;;;22.10;97.70;;;;;;4938492;29;20072;-85
2023/08/19 04:27:17;;;;;;;18.83;16.25;;;22.20;97.60;;;;;;4942927;29;20074;-83
2023/08/19 04:29:43;;;;;;;19.27;15.95;;;22.20;97.60;;;;;;4940145;29;20055;-87
2023/08/19 04:32:09;;;;;;;17.75;15.93;;;22.30;97.60;;;;;;4939958;29;20046;-85
2023/08/19 04:34:34;;;;;;;21.40;15.85;;;22.40;97.30;;;;;;4936444;29;20477;-84
2023/08/19 04:37:00;;;;;;;17.63;15.75;;;22.50;97.20;;;;;;4951358;29;20073;-84
2023/08/19 04:39:26;;;;;;;18.60;16.63;;;22.60;97.10;;;;;;4946082;29;20086;-85
2023/08/19 04:41:53;;;;;;;18.70;14.82;;;22.70;96.90;;;;;;4942223;29;20028;-85
2023/08/19 04:44:19;;;;;;;15.88;14.30;;;22.90;96.70;;;;;;4937641;29;20034;-84
2023/08/19 04:46:45;;;;;;;17.30;15.52;;;23.20;96.40;;;;;;4929633;29;20039;-85
2023/08/19 04:49:11;;;;;;;19.40;15.50;;;23.60;95.60;;;;;;4931222;29;20102;-85
2023/08/19 04:51:37;;;;;;;18.33;14.85;;;24.20;94.60;;;;;;4952066;29;20030;-85
2023/08/19 04:54:03;;;;;;;16.88;15.15;;;24.70;93.50;;;;;;4945574;29;20079;-85
2023/08/19 04:56:30;;;;;;;15.35;13.63;;;25.10;92.20;;;;;;4947624;28;20501;-84
2023/08/19 04:58:56;;;;;;;16.33;14.77;;;25.30;91.70;;;;;;4937830;29;20024;-85
2023/08/19 05:01:22;;;;;;;16.33;14.68;;;25.30;91.10;;;;;;4926160;29;20028;-83
2023/08/19 05:03:48;;;;;;;21.85;19.55;;;25.40;91.20;;;;;;4941211;29;20111;-85
2023/08/19 05:06:14;;;;;;;14.95;13.55;;;25.50;91.10;;;;;;4942230;29;20047;-85
2023/08/19 05:08:40;;;;;;;16.77;13.05;;;25.80;90.40;;;;;;4944314;29;20024;-83
2023/08/19 05:11:05;;;;;;;16.75;13.88;;;26.40;89.70;;;;;;4940427;29;20034;-84
2023/08/19 05:13:31;;;;;;;17.88;14.77;;;27.00;87.10;;;;;;4938246;29;20028;-86
2023/08/19 05:16:00;;;;;;;15.85;14.25;;;27.40;85.40;;;;;;4950273;29;20692;-84
2023/08/19 05:18:26;;;;;;;19.25;15.15;;;27.90;83.50;;;;;;4943836;29;20023;-85
2023/08/19 05:20:52;;;;;;;19.40;14.85;;;28.10;81.40;;;;;;4955024;29;20031;-84
2023/08/19 05:23:17;;;;;;;23.23;16.05;;;28.00;82.00;;;;;;4947255;29;20042;-86
2023/08/19 05:25:43;;;;;;;19.35;16.02;;;28.00;81.10;;;;;;4947229;29;20430;-82
2023/08/19 05:28:10;;;;;;;19.67;14.88;;;28.20;81.10;;;;;;4931361;29;20059;-83
2023/08/19 05:30:36;;;;;;;16.58;14.57;;;28.80;79.80;;;;;;4934886;29;20031;-83
2023/08/19 05:33:02;;;;;;;16.55;13.57;;;29.40;77.70;;;;;;4935565;29;20029;-84
2023/08/19 05:35:28;;;;;;;17.40;15.35;;;29.90;75.80;;;;;;4949652;29;20004;-86
2023/08/19 05:37:55;;;;;;;16.83;14.18;;;30.40;73.80;;;;;;4960329;28;20031;-85
2023/08/19 05:40:20;;;;;;;;;;;30.80;72.50;;;;;;4939804;29;20032;-86
2023/08/19 05:42:47;;;;;;;23.63;19.47;;;31.30;74.00;;;;;;4944548;29;19914;-85
2023/08/19 05:45:13;;;;;;;16.60;14.82;;;31.40;69.70;;;;;;4938645;28;20032;-85
2023/08/19 05:47:38;;;;;;;17.80;14.87;;;30.80;69.50;;;;;;4927638;29;20034;-84
2023/08/19 05:50:06;;;;;;;19.95;14.13;;;30.50;70.50;;;;;;4938937;29;20031;-84
2023/08/19 05:52:32;;;;;;;17.90;16.10;;;30.40;71.30;;;;;;4936148;29;20385;-86
2023/08/19 05:54:58;;;;;;;19.42;14.73;;;30.50;70.50;;;;;;4936285;29;20114;-87
2023/08/19 05:57:24;;;;;;;21.20;14.82;;;30.10;70.70;;;;;;4935572;29;20075;-85
2023/08/19 05:59:49;;;;;;;16.05;14.38;;;29.70;72.30;;;;;;4939907;29;20027;-84
2023/08/19 06:02:15;;;;;;;17.52;14.90;;;30.10;72.50;;;;;;4946246;29;20452;-84
2023/08/19 06:04:42;;;;;;;15.33;13.80;;;31.10;70.20;;;;;;4936548;29;20055;-86
2023/08/19 06:07:09;;;;;;;17.73;13.57;;;31.90;68.30;;;;;;4929028;29;20341;-84
2023/08/19 06:09:34;;;;;;;17.13;13.52;;;32.70;66.40;;;;;;4930953;29;20023;-83
2023/08/19 06:12:01;;;;;;;16.73;13.57;;;33.70;64.30;;;;;;4940412;29;20038;-84
2023/08/19 06:14:26;;;;;;;15.93;13.48;;;34.40;61.80;;;;;;4939669;29;20043;-84
2023/08/19 06:16:52;;;;;;;13.90;12.47;;;35.20;59.90;;;;;;4940872;29;20098;-83
2023/08/19 06:19:18;;;;;;;13.87;11.47;;;35.80;58.60;;;;;;4952638;29;20507;-86
2023/08/19 06:21:44;;;;;;;14.80;13.17;;;35.90;57.70;;;;;;4950673;29;20158;-85
2023/08/19 06:24:10;;;;;;;13.07;11.80;;;;;;;;;;4936750;29;20398;-85
2023/08/19 06:26:36;;;;;;;14.60;12.30;;;36.20;56.90;;;;;;4935764;29;20038;-86
2023/08/19 06:29:02;;;;;;;14.90;12.77;;;36.70;55.00;;;;;;4943670;29;20039;-85
2023/08/19 06:31:28;;;;;;;19.50;14.90;;;36.60;54.20;;;;;;4952716;29;20035;-84
2023/08/19 06:33:54;;;;;;;11.93;10.82;;;37.00;54.60;;;;;;4957806;29;20425;-85
2023/08/19 06:36:24;;;;;;;13.82;10.68;;;37.50;54.60;;;;;;4939457;29;20114;-85
2023/08/19 06:39:06;;;;;;;15.05;12.35;;;38.00;53.10;;;;;;4936781;29;20032;-86
2023/08/19 06:41:35;;;;;;;13.95;11.68;;;38.50;51.90;;;;;;4946968;29;20104;-86
2023/08/19 06:44:03;;;;;;;12.50;10.77;;;38.70;50.50;;;;;;4938006;28;20119;-85
2023/08/19 06:46:30;;;;;;;12.48;11.10;;;38.70;50.60;;;;;;4929152;29;20415;-85
2023/08/19 06:48:57;;;;;;;16.20;11.85;;;39.00;49.90;;;;;;4927518;29;20039;-85
2023/08/19 06:51:24;;;;;;;12.50;10.07;;;39.00;49.60;;;;;;4931877;29;20027;-84
2023/08/19 06:53:50;;;;;;;14.23;12.00;;;38.60;49.70;;;;;;4937570;29;20388;-85
2023/08/19 06:56:33;;;;;;;12.88;11.38;;;38.60;49.90;;;;;;4938485;29;20095;-85
2023/08/19 06:59:07;;;;;;;11.60;10.50;;;38.80;50.10;;;;;;4953656;29;20031;-87
2023/08/19 07:01:37;;;;;;;12.48;11.48;;;39.30;49.30;;;;;;4960092;29;20023;-86
2023/08/19 07:04:03;;;;;;;16.00;11.43;;;39.50;48.20;;;;;;4940885;29;20119;-85
2023/08/19 07:06:31;;;;;;;16.65;12.43;;;38.80;48.80;;;;;;4941561;29;20265;-86
2023/08/19 07:09:01;;;;;;;11.82;10.65;;;38.30;49.60;;;;;;4941378;29;20023;-85
2023/08/19 07:11:27;;;;;;;14.82;11.52;;;38.10;50.10;;;;;;4942496;29;20079;-86
2023/08/19 07:13:53;;;;;;;13.75;11.43;;;38.50;50.10;;;;;;4942652;29;20031;-86
2023/08/19 07:16:22;;;;;;;13.77;11.43;;;39.10;49.10;;;;;;4955491;29;20058;-87
2023/08/19 07:18:51;;;;;;;12.07;10.90;;;39.70;48.10;;;;;;4929075;29;20106;-84
2023/08/19 07:21:20;;;;;;;13.77;10.93;;;39.60;47.90;;;;;;4939875;29;20062;-85
2023/08/19 07:23:47;;;;;;;12.85;10.98;;;39.70;48.00;;;;;;4942194;29;20027;-85
2023/08/19 07:26:14;;;;;;;11.73;10.52;;;40.20;47.10;;;;;;4960546;28;20063;-85
2023/08/19 07:28:40;;;;;;;13.50;10.23;;;40.30;46.30;;;;;;4945334;29;20103;-86
2023/08/19 07:31:10;;;;;;;15.88;12.77;;;38.80;47.30;;;;;;4948762;29;20034;-86
2023/08/19 07:33:36;;;;;;;13.60;12.30;;;36.90;49.90;;;;;;4943637;29;20083;-86
2023/08/19 07:36:03;;;;;;;14.63;11.23;;;;;;;;;;4950574;29;20123;-85
2023/08/19 07:38:28;;;;;;;;;;;35.40;52.60;;;;;;4948555;28;20034;-86
2023/08/19 07:40:54;;;;;;;14.90;13.20;;;33.80;54.80;;;;;;4955630;28;19906;-86
2023/08/19 07:43:20;;;;;;;13.60;12.27;;;32.50;57.80;;;;;;4944371;29;20054;-86
2023/08/19 07:45:46;;;;;;;14.47;13.00;;;;;;;;;;4934469;29;20183;-90
2023/08/19 07:48:13;;;;;;;14.17;11.53;;;31.50;60.30;;;;;;4934859;29;20027;-91
2023/08/19 07:50:39;;;;;;;16.85;13.73;;;30.70;63.50;;;;;;4955166;29;20484;-90
2023/08/19 07:53:05;;;;;;;14.98;12.77;;;30.20;63.00;;;;;;4947320;29;20110;-89
2023/08/19 07:55:31;;;;;;;15.85;14.20;;;30.20;64.50;;;;;;4935804;29;20024;-87
2023/08/19 07:57:56;;;;;;;16.07;12.40;;;31.20;64.10;;;;;;4952199;29;20027;-88
2023/08/19 08:00:22;;;;;;;17.73;13.40;;;32.70;61.20;;;;;;4940137;29;20055;-87
2023/08/19 08:02:48;;;;;;;22.53;14.07;;;33.70;58.00;;;;;;4938450;29;20031;-86
2023/08/19 08:05:14;;;;;;;27.80;19.83;;;33.50;57.50;;;;;;4954573;29;20023;-87
2023/08/19 08:07:40;;;;;;;17.83;11.63;;;;;;;;;;4943451;29;20083;-87
2023/08/19 08:10:06;;;;;;;10.80;9.70;;;;;;;;;;4944862;29;20027;-86
2023/08/19 08:12:32;;;;;;;9.88;8.98;;;;;;;;;;4929267;29;20550;-86
2023/08/19 08:14:59;;;;;;;11.00;10.00;;;;;;;;;;4940726;29;20138;-87
2023/08/19 08:17:25;;;;;;;;;;;;;;;;;;4949606;28;20032;-87
2023/08/19 08:19:50;;;;;;;;;;;33.70;57.70;;;;;;4933039;29;19997;-85
2023/08/19 08:22:16;;;;;;;11.63;8.10;;;38.20;50.90;;;;;;4946577;29;19953;-85
2023/08/19 08:24:42;;;;;;;9.40;7.95;;;39.20;47.90;;;;;;4937036;28;20479;-86
2023/08/19 08:27:08;;;;;;;9.85;7.95;;;40.30;44.80;;;;;;4952898;29;20120;-87
2023/08/19 08:29:34;;;;;;;11.43;7.40;;;41.10;43.30;;;;;;4950797;29;20043;-86
2023/08/19 08:32:00;;;;;;;15.95;11.68;;;41.30;42.60;;;;;;4956914;29;20027;-88
2023/08/19 08:34:26;;;;;;;8.32;7.00;;;41.40;42.40;;;;;;4955403;29;20400;-89
2023/08/19 08:36:52;;;;;;;8.10;6.97;;;41.10;42.10;;;;;;4944234;28;20047;-87
2023/08/19 08:39:17;;;;;;;9.60;8.57;;;40.80;41.90;;;;;;4935404;29;20569;-87
2023/08/19 08:41:44;;;;;;;12.13;9.88;;;39.70;42.60;;;;;;4922111;29;20035;-88
2023/08/19 08:44:13;;;;;;;;;;;38.10;44.60;;;;;;4935213;29;20040;-89
2023/08/19 08:46:43;;;;;;;9.55;8.60;;;36.50;46.20;;;;;;4936833;29;20007;-88
2023/08/19 08:49:10;;;;;;;10.90;9.05;;;34.90;49.50;;;;;;4945613;29;20047;-87
2023/08/19 08:51:37;;;;;;;12.45;11.15;;;34.20;52.30;;;;;;4931126;29;20020;-88
2023/08/19 08:54:06;;;;;;;15.48;11.18;;;33.70;52.50;;;;;;4946621;29;20028;-85
2023/08/19 08:56:33;;;;;;;12.73;11.18;;;33.10;54.20;;;;;;4940674;29;20027;-91
2023/08/19 08:58:59;;;;;;;19.20;11.00;;;32.60;54.30;;;;;;4941895;29;20024;-88
2023/08/19 09:01:28;;;;;;;15.03;11.10;;;32.30;55.60;;;;;;4941456;29;20038;-90
2023/08/19 09:04:03;;;;;;;13.82;12.38;;;32.20;55.60;;;;;;4952367;29;20034;-90
2023/08/19 09:06:29;;;;;;;15.90;10.45;;;31.90;56.10;;;;;;4951924;29;20525;-93
2023/08/19 09:09:04;;;;;;;11.40;10.32;;;31.40;55.80;;;;;;4962644;29;20047;-93
2023/08/19 09:11:43;;;;;;;13.30;10.63;;;30.80;56.90;;;;;;4947095;29;20028;-94
2023/08/19 09:14:35;;;;;;;16.85;12.15;;;30.70;57.50;;;;;;4939579;29;20052;-89
2023/08/19 09:17:01;;;;;;;12.48;10.85;;;31.00;56.60;;;;;;4950406;29;20011;-90
2023/08/19 09:19:27;;;;;;;11.27;10.13;;;31.40;57.00;;;;;;4933614;28;20084;-89
2023/08/19 09:21:53;;;;;;;12.50;9.67;;;32.80;55.50;;;;;;4947619;29;20028;-89
2023/08/19 09:24:18;;;;;;;9.47;8.67;;;35.10;51.40;;;;;;4946717;29;20052;-88
2023/08/19 09:26:45;;;;;;;10.68;9.63;;;37.00;48.30;;;;;;4950139;29;20028;-88
2023/08/19 09:29:11;;;;;;;;;;;38.30;46.20;;;;;;4958048;29;20038;-88
2023/08/19 09:31:41;;;;;;;10.32;8.93;;;39.30;46.90;;;;;;4963270;29;19895;-87
2023/08/19 09:34:06;;;;;;;10.02;8.63;;;40.20;43.70;;;;;;4942413;29;20385;-88
2023/08/19 09:36:32;;;;;;;;;;;41.40;42.00;;;;;;4928589;29;20024;-87
2023/08/19 09:38:58;;;;;;;11.57;10.05;;;41.60;42.50;;;;;;4941717;29;19914;-89
2023/08/19 09:41:25;;;;;;;;;;;41.60;41.30;;;;;;4966238;28;20045;-85
2023/08/19 09:43:54;;;;;;;10.77;9.20;;;41.80;42.30;;;;;;4948829;29;19949;-88
2023/08/19 09:46:20;;;;;;;12.25;11.02;;;42.30;40.20;;;;;;5012721;23;20147;-90
2023/08/19 09:48:57;;;;;;;9.38;8.10;;;42.30;39.80;;;;;;4901214;29;20057;-88
2023/08/19 09:51:27;;;;;;;8.77;7.97;;;42.00;40.00;;;;;;4897948;29;20029;-87
2023/08/19 09:53:55;;;;;;;9.98;8.32;;;42.30;39.60;;;;;;4895812;29;20397;-86
2023/08/19 09:56:22;;;;;;;12.00;8.80;;;42.80;38.90;;;;;;4902306;29;20021;-86
2023/08/19 09:58:53;;;;;;;8.60;7.80;;;42.30;38.60;;;;;;4914434;29;20065;-89
2023/08/19 10:01:25;;;;;;;9.48;8.55;;;41.20;39.10;;;;;;4902710;29;20033;-88
2023/08/19 10:03:51;;;;;;;10.30;8.52;;;39.50;40.50;;;;;;4900252;29;20068;-88
2023/08/19 10:06:23;;;;;;;;;;;37.70;42.90;;;;;;4901469;29;20059;-90
2023/08/19 10:08:51;;;;;;;11.52;10.30;;;;;;;;;;4891649;29;20396;-90
2023/08/19 10:11:19;;;;;;;14.05;10.60;;;36.30;43.80;;;;;;4904707;29;20028;-87
2023/08/19 10:13:45;;;;;;;11.18;9.65;;;;;;;;;;4907713;29;20036;-90
2023/08/19 10:16:21;;;;;;;11.57;9.93;;;34.10;48.00;;;;;;4907596;29;20032;-94
2023/08/19 10:18:52;;;;;;;12.73;10.45;;;33.40;50.10;;;;;;4913948;29;20088;-93
2023/08/19 10:21:22;;;;;;;15.63;14.18;;;33.40;50.00;;;;;;4892443;29;20028;-91
2023/08/19 10:23:53;;;;;;;12.82;10.48;;;33.70;50.50;;;;;;4906210;29;20043;-93
2023/08/19 10:26:20;;;;;;;13.18;9.95;;;34.30;48.90;;;;;;4908802;29;20593;-94
2023/08/19 10:29:06;;;;;;;14.52;9.70;;;34.30;48.00;;;;;;4908149;29;20055;-92
2023/08/19 10:31:33;;;;;;;13.80;10.38;;;;;;;;;;4891905;29;20137;-91
2023/08/19 10:33:59;;;;;;;16.45;9.57;;;33.80;48.70;;;;;;4897511;29;20051;-90
2023/08/19 10:36:33;;;;;;;14.77;10.33;;;32.60;51.70;;;;;;4923527;29;20036;-92
2023/08/19 10:39:15;;;;;;;12.25;10.40;;;32.40;51.90;;;;;;4930165;29;20032;-93
2023/08/19 10:41:44;;;;;;;15.13;10.27;;;32.10;52.60;;;;;;4859746;29;20036;-93
2023/08/19 10:44:13;;;;;;;11.23;9.93;;;31.90;53.00;;;;;;4910652;29;20028;-92
2023/08/19 10:46:47;;;;;;;13.07;10.02;;;31.60;52.40;;;;;;4880446;29;20057;-90
2023/08/19 10:49:15;;;;;;;11.02;9.93;;;31.40;53.00;;;;;;4910654;29;20064;-91
2023/08/19 10:52:04;;;;;;;13.25;10.38;;;31.30;52.90;;;;;;4903050;29;20036;-91
2023/08/19 10:54:43;;;;;;;9.97;9.03;;;31.00;53.80;;;;;;4872356;29;20035;-93
2023/08/19 10:57:23;;;;;;;13.57;11.05;;;30.70;53.60;;;;;;4888815;29;20045;-93
2023/08/19 10:59:57;;;;;;;15.45;13.02;;;30.70;54.10;;;;;;4881178;29;20033;-91
2023/08/19 11:03:04;;;;;;;13.98;11.13;;;30.60;54.30;;;;;;4900925;29;20089;-93
2023/08/19 11:05:32;;;;;;;10.85;9.75;;;30.40;54.10;;;;;;4890035;29;20557;-92
2023/08/19 11:07:59;;;;;;;17.48;15.77;;;30.20;55.30;;;;;;4884638;29;20028;-93
2023/08/19 11:10:41;;;;;;;13.40;10.30;;;30.20;55.10;;;;;;4867773;29;20018;-90
2023/08/19 11:13:10;;;;;;;14.98;11.05;;;;;;;;;;4881846;29;20042;-84
2023/08/19 11:18:30;;;;;;;15.40;11.73;;;29.80;56.10;;;;;;4877386;29;20038;-90
2023/08/19 11:20:56;;;;;;;13.55;10.40;;;29.70;57.10;;;;;;4891947;29;20041;-89
2023/08/19 11:23:32;;;;;;;11.65;10.45;;;29.70;57.20;;;;;;4909612;29;20033;-93
2023/08/19 11:25:58;;;;;;;12.60;10.27;;;29.70;56.60;;;;;;4857494;29;20053;-92
2023/08/19 11:28:35;;;;;;;11.48;10.40;;;29.70;56.70;;;;;;4879493;29;20014;-93
2023/08/19 11:31:02;;;;;;;14.38;12.77;;;29.70;57.20;;;;;;4880412;29;20049;-93
2023/08/19 11:33:33;;;;;;;10.63;9.30;;;29.90;55.60;;;;;;4878757;29;20123;-93
2023/08/19 11:36:04;;;;;;;13.93;10.93;;;30.10;55.10;;;;;;4867164;29;20051;-93
2023/08/19 11:38:30;;;;;;;10.98;9.95;;;30.30;54.70;;;;;;4861719;29;20085;-92
2023/08/19 11:40:56;;;;;;;15.77;10.57;;;30.50;54.20;;;;;;4883210;29;20410;-93
2023/08/19 11:43:25;;;;;;;14.57;10.88;;;30.60;55.00;;;;;;4892501;29;20044;-93
2023/08/19 11:45:52;;;;;;;16.52;10.10;;;30.60;55.10;;;;;;4903074;29;20064;-88
2023/08/19 11:48:18;;;;;;;14.77;10.45;;;30.50;55.10;;;;;;4883540;29;20033;-90
2023/08/19 11:50:49;;;;;;;18.25;10.55;;;30.50;55.20;;;;;;4884494;29;20060;-88
2023/08/19 11:53:26;;;;;;;13.85;12.45;;;30.40;55.20;;;;;;4881658;29;20043;-91
2023/08/19 11:55:57;;;;;;;13.07;9.85;;;30.40;55.10;;;;;;4873524;29;20026;-87
2023/08/19 11:58:27;;;;;;;12.40;10.23;;;30.30;55.40;;;;;;4890272;29;20025;-90
2023/08/19 12:00:59;;;;;;;15.02;9.98;;;30.10;54.80;;;;;;4885458;29;20028;-91
2023/08/19 12:03:26;;;;;;;11.68;10.48;;;29.90;55.40;;;;;;4917241;29;20025;-94
2023/08/19 12:05:52;;;;;;;10.77;9.80;;;29.90;55.30;;;;;;4890627;29;20127;-89
2023/08/19 12:08:31;;;;;;;10.82;9.75;;;29.80;55.50;;;;;;4891490;29;20100;-90
2023/08/19 12:10:58;;;;;;;14.55;11.98;;;29.70;55.40;;;;;;4895761;29;20044;-91
2023/08/19 12:13:27;;;;;;;10.77;9.68;;;29.50;55.90;;;;;;4899486;29;20025;-95
2023/08/19 12:15:54;;;;;;;13.48;11.40;;;29.30;56.00;;;;;;4897907;29;20125;-90
2023/08/19 12:18:19;;;;;;;11.20;10.10;;;29.30;57.00;;;;;;4887958;29;20108;-92
2023/08/19 12:20:51;;;;;;;10.90;9.80;;;29.30;56.30;;;;;;4899982;29;20127;-93
2023/08/19 12:23:17;;;;;;;10.60;9.45;;;;;;;;;;4921811;29;20315;-89
2023/08/19 12:26:26;;;;;;;10.80;9.80;;;;;;;;;;4922053;29;20025;-90
2023/08/19 12:28:52;;;;;;;12.00;9.75;;;;;;;;;;4887191;29;20048;-86
2023/08/19 12:31:38;;;;;;;11.10;10.00;;;;;;;;;;4903895;29;20041;-95
2023/08/19 12:34:46;;;;;;;13.63;9.95;;;;;;;;;;4899578;29;20053;-94
2023/08/19 12:37:12;;;;;;;11.13;9.70;;;;;;;;;;4900226;29;20045;-90
2023/08/19 12:39:38;;;;;;;11.38;10.15;;;;;;;;;;4888862;29;20039;-90
2023/08/19 12:42:04;;;;;;;10.53;9.43;;;;;;;;;;4889367;29;20096;-90
2023/08/19 12:44:30;;;;;;;11.30;10.07;;;;;;;;;;4898923;29;20041;-92
2023/08/19 12:46:57;;;;;;;13.17;11.07;;;;;;;;;;4889705;29;20555;-91
2023/08/19 12:49:23;;;;;;;14.13;11.93;;;;;;;;;;4869893;29;20040;-92